Terminal Aerodrome Forecast
Issued by NWS Cleveland, OH

Home | Current Version | Previous Version | Text Only | Print | Product List | Glossary Off
Versions: 1 2 3 4 5 6 7 8 9 10 11 12 13 14 15 16 17 18 19 20

000
FTUS41 KCLE 192332
TAFMFD
TAF
KMFD 192332Z 2000/2024 04009KT P6SM OVC020
     FM200300 05008KT P6SM OVC010
      TEMPO 2004/2008 5SM BR BKN009
     FM201200 04007KT P6SM BKN015
     FM201800 09006KT P6SM BKN035=

USA.gov is the U.S. government's official web portal to all federal, state and local government web resources and services.